Gulfport, MS (39507)

7:42 AM CST on November 23, 2014 (GMT -0600)
Greenbriar | Change Station
CLOSE
Current Station
Personal Weather Station
Location: Gulfport, MS
Elevation: 20 ft
Nearby Weather Stations
Active Advisory: Special Statement

Elev 20 ft 30.40 °N, 89.04 °W | Updated 2 minutes ago

Light Rain
Light Rain Mist
--
Feels Like --
N
5.0
Wind Variable Wind from South

Today
High -- | Low -- °F
--% Chance of Precip.
Yesterday
High -- | Low -- °F
Precip. -- in
6:28 AM 4:56 PM
New Moon, 1% visible
Pressure 29.71 in
Visibility 3.0 miles
Clouds Few 200 ft
Mostly Cloudy 1100 ft
Overcast 2000 ft
Dew Point Not available.
Humidity Not available.
Rainfall 0.00 in
Snow Depth Not available.
UV 0 out of 12
Pollen .50 out of 12
Air Quality Not available.
Flu Activity Not available.
SPECI KGPT 231339Z 17018G30KT 3SM -RA BR FEW002 BKN011 OVC020 21/20 A2971 RMK AO2 PK WND 19030/1338 WSHFT 1325 P0099 T02060200

More Conditions Fewer Conditions

Pressure 29.71 in
Visibility 3.0 miles
Clouds Few 200 ft
Mostly Cloudy 1100 ft
Overcast 2000 ft
Dew Point Not available.
Humidity Not available.
Rainfall 0.00 in
Snow Depth Not available.
UV 0 out of 12
Pollen .50 out of 12
Air Quality Not available.
Flu Activity Not available.
SPECI KGPT 231339Z 17018G30KT 3SM -RA BR FEW002 BKN011 OVC020 21/20 A2971 RMK AO2 PK WND 19030/1338 WSHFT 1325 P0099 T02060200

More Conditions Fewer Conditions

10-Day Weather Forecast

Almanac

Astronomy

Nov. 23, 2014 Rise Set
Actual Time
Civil Twilight
Nautical Twilight
Astronomical Twilight
Moon
Length of Visible Light
Length of Day
Tomorrow will be .
, % of the Moon is Illuminated

Today's Extremes

State Highs State Lows

Community

WunderPhotos

Upload Photos

1,773,062 photos uploaded!

WunderBlogs® & News

Nearby

Air Quality

  Air Quality AQ Index Pollutant
Not available.

Snow Depth

Station Depth Elevation

Earthquake Activity

City Distance Mag. Time & Date
Minimum magnitude displayed is 2.5.

Coastal Water Temperatures

Place Temperature

Nearby Weather Stations